Portada
METAR-TAF:

METAR-TAF

Aeropuertos :

Aeropuerto de Belgrado-Nikola Tesla

Belgrado, Serbia

latitud: 44-49N, longitud: 020-17E, altitud: 96 m

Observación

El informe se hizo hace 28 minutos, a las 05:00 UTC
Viento 1 kt del oeste-noroeste
Temperatura 23°C
Humedad 78%
Presión 1012 hPa
Visibilidad 10 km o más
sin nubes por debajo de 1500 m y sin presencia de cumulonimbus.

METAR: LYBE 300500Z 30001KT CAVOK 23/19 Q1012 NOSIG

Hora: 07:28 (05:28 UTC)

Pronóstico

El informe se hizo hace 6 horas y 28 minutos, a las 23:00 UTC
Pronóstico válido del 30 a las 00 UTC al 30 a las 24 UTC
Viento 6 kt del norte-noreste
Visibilidad 10 km o más
sin nubes por debajo de 1500 m y sin presencia de cumulonimbus.

TAF: LYBE 292300Z 3000/3024 02006KT CAVOK TX35/3013Z TN23/3003Z

Observaciones y pronósticos meteorológicos de más de 4000 aeropuertos (mensajes METAR y TAF).

Los puntos amarillos y rojos representan las estaciones disponibles.

Ponga el ratón en el punto deseado para ver el nombre de la estación.

Haga clic para ver las observaciones y los pronósticos meteorológicos.

Para cambiar el mapa : haga clic en los botones verdes con una cruz de color negro para hacer un zoom, en el botón verde con un guión para alejar o en las flechas verdes para mapas adyacentes.


METAR-TAF: